Rachel, Nevada Weather observations

Data are for observation ending at time listed.
 Day   Time    Ave.   Ave.  Ave.  Vector   Max.   Stn.    Total    Solar   Ave.  
  of    of     Air    Rel.  Wind   Wind    Wind   Baro.  Precip.   Rad.    Soil  
Year   Day     Temp.  Hum.  Speed  Dir.    Gust   Pres.                    Temp. 
2015   (PST)    F      %     mph   deg.    mph     mb.     in.     W/m2     F   
------------------------------------------------------------------------------
  64    3:50   22.7    87    0.1   220      0.6   856.4    0.00       0    33.2
  64    4:00   22.7    87    0.3   220      1.5   856.4    0.00       0    33.2
  64    4:10   21.9    87    1.2   220      1.8   856.3    0.00       0    33.1
  64    4:20   21.3    88    0.0   220      0.6   856.3    0.00       0    33.0
  64    4:30   20.2    88    0.4   220      0.8   856.3    0.00       0    33.0
  64    4:40   20.5    90    0.5   223      0.9   856.4    0.00       0    32.9
  64    4:50   21.2    90    0.6   224      1.4   856.5    0.00       0    32.9
  64    5:00   21.2    90    0.0     0      0.0   856.6    0.00       0    32.9
  64    5:10   19.9    89    0.0   224      0.4   856.8    0.00       0    32.8
  64    5:20   19.1    90    0.0   224      0.4   856.8    0.00       0    32.7
  64    5:30   19.8    90    0.1   224      0.5   856.9    0.00       0    32.7
  64    5:40   19.8    90    0.3   224      0.9   857.0    0.00       0    32.7
  64    5:50   19.8    90    0.3   224      1.2   856.9    0.00       0    32.6
  64    6:00   19.4    89    0.1   224      0.7   856.9    0.00       0    32.5
  64    6:10   19.8    89    1.5   221      2.8   857.0    0.00       2    32.4
  64    6:20   19.9    89    2.7   218      3.1   857.1    0.00       4    32.4
  64    6:30   19.6    89    1.3   217      2.3   857.3    0.00       8    32.3
  64    6:40   19.7    89    2.0   217      2.9   857.4    0.00      11    32.3
  64    6:50   20.8    88    2.8   208      5.0   857.5    0.00      53    32.4
  64    7:00   22.6    86    7.0   196      8.6   857.4    0.00      91    32.4
  64    7:10   25.9    80    4.5   221      6.8   857.6    0.00     115    32.5
  64    7:20   28.2    77    1.3   228      3.6   857.8    0.00     140    32.5
  64    7:30   27.2    79    1.7   310      3.4   858.2    0.00     165    32.6
  64    7:40   26.9    82    2.0   335      3.4   858.5    0.00     191    32.7
  64    7:50   28.8    75    1.2   341      2.8   858.9    0.00     217    32.8
  64    8:00   28.5    76    2.0   341      3.3   859.4    0.00     242    32.9
  64    8:10   28.2    76    2.1   335      2.9   859.5    0.00     267    33.1
  64    8:20   29.8    72    1.2   336      2.0   860.1    0.00     291    33.5
  64    8:30   31.4    69    0.7   341      2.0   859.9    0.00     315    33.9
  64    8:40   32.5    68    0.2   341      1.1   860.4    0.00     339    34.6
  64    8:50   34.1    64    1.0    24      4.2   860.4    0.00     361    35.4
  64    9:00   34.8    61    0.7   125      2.3   860.3    0.00     382    36.1
  64    9:10   37.3    56    0.3   123      1.6   860.5    0.00     403    36.7
  64    9:20   38.4    52    0.7   109      1.9   860.7    0.00     422    37.1
  64    9:30   38.5    49    0.9   108      2.0   860.7    0.00     441    37.4
  64    9:40   40.5    47    0.3   108      1.7   860.9    0.00     458    37.7
  64    9:50   42.7    43    0.4   243      2.8   861.2    0.00     475    38.0
  64   10:00   43.6    41    0.0   251      0.7   861.4    0.00     491    38.3
  64   10:10   43.4    40    0.1   232      0.8   861.2    0.00     506    38.5
  64   10:20   41.9    42    0.7   177      2.6   861.1    0.00     517    38.8
  64   10:30   43.2    38    0.7   199      3.3   861.1    0.00     529    39.0
  64   10:40   45.5    35    0.4   226      1.9   861.2    0.00     540    39.2
  64   10:50   46.5    34    0.2   306      0.9   861.0    0.00     551    39.3
  64   11:00   47.5    34    1.1    97      3.8   861.2    0.00     560    39.5
  64   11:10   46.2    34    0.7   132      3.4   861.2    0.00     566    39.8
  64   11:20   46.4    31    1.4   171      3.9   861.4    0.00     573    40.1
  64   11:30   47.9    29    1.7   280      3.0   861.3    0.00     577    40.5
  64   11:40   48.1    30    0.7   318      2.5   861.0    0.00     580    40.6
  64   11:50   49.0    29    0.8   255      3.3   861.0    0.00     582    40.6
  64   12:00   49.3    30    1.9   357      5.0   861.0    0.00     582    40.8
  64   12:10   49.7    29    1.6   356      6.4   861.0    0.00     580    41.0
  64   12:20   49.6    30    2.9     4      6.0   860.7    0.00     579    41.1
  64   12:30   50.4    29    1.3   333      3.9   860.5    0.00     574    41.1
  64   12:40   50.4    29    2.8   117      6.3   860.5    0.00     571    41.3
  64   12:50   50.4    26    2.8    43      4.3   860.4    0.00     565    41.5
  64   13:00   51.0    25    1.9   319      5.5   860.2    0.00     558    41.6
  64   13:10   51.3    25    2.4   335      6.1   860.1    0.00     549    41.7
  64   13:20   52.7    24    3.2    26     10.4   859.9    0.00     539    41.9
  64   13:30   51.8    24    3.6    59      6.5   859.9    0.00     528    42.1
  64   13:40   52.5    24    3.0    52      8.1   860.0    0.00     517    42.3
  64   13:50   52.5    25    4.1    27      6.2   860.0    0.00     505    42.4
  64   14:00   53.3    24    1.9    64      3.9   860.0    0.00     491    42.6
  64   14:10   53.6    23    1.2    10      4.1   859.9    0.00     476    42.9
  64   14:20   55.0    22    1.6   101      4.2   860.1    0.00     460    43.1
  64   14:30   54.7    22    1.6   149      4.5   860.3    0.00     443    43.4
  64   14:40   54.7    21    2.4   198      4.7   860.2    0.00     424    43.6
  64   14:50   55.2    19    1.6   226      5.9   860.4    0.00     402    43.8
  64   15:00   55.7    19    2.1   238      5.5   860.3    0.00     381    44.0
  64   15:10   56.2    19    1.7   292      4.7   860.3    0.00     360    44.2
  64   15:20   57.0    19    2.3   269      5.0   860.3    0.00     337    44.4
  64   15:30   56.2    19    3.3   292      6.7   860.2    0.00     313    44.7
  64   15:40   56.5    20    3.2   273      5.9   860.1    0.00     289    44.9
  64   15:50   56.4    19    2.6   275      4.7   860.0    0.00     265    45.0
  64   16:00   55.9    19    1.4   209      3.7   859.9    0.00     241    45.1
  64   16:10   55.9    19    1.9   174      4.7   859.9    0.00     216    45.2
  64   16:20   55.9    19    2.2   137      5.5   859.9    0.00     191    45.3
  64   16:30   55.6    20    1.6   150      3.9   859.8    0.00     166    45.3
  64   16:40   55.9    20    1.8   141      3.1   859.8    0.00     141    45.4
  64   16:50   55.6    20    2.1   163      3.7   859.8    0.00     118    45.4
  64   17:00   55.5    20    0.8   168      2.9   859.8    0.00      93    45.5
  64   17:10   55.6    21    1.1   170      2.3   859.7    0.00      63    45.4
  64   17:20   55.3    21    0.9   170      1.5   859.6    0.00      38    45.4
  64   17:30   54.9    23    0.2   171      1.5   859.4    0.00      21    45.3
  64   17:40   54.0    26    0.0     0      0.0   859.3    0.00      10    45.2
  64   17:50   52.5    27    0.9   222      3.5   859.1    0.00       4    45.0
  64   18:00   50.9    28    3.9   270      6.6   859.2    0.00       3    44.8
  64   18:10   49.3    26    4.6   264      6.1   859.0    0.00       0    44.6
  64   18:20   44.7    44    4.7   223      6.3   858.9    0.00       0    44.3
  64   18:30   42.3    52    5.5   209      6.3   858.9    0.00       0    43.9
  64   18:40   41.7    51    5.4   224      6.1   858.9    0.00       0    43.6
  64   18:50   40.8    53    4.9   211      6.4   858.7    0.00       0    43.4
  64   19:00   39.7    56    5.5   208      6.4   858.6    0.00       0    43.1
  64   19:10   39.8    54    4.2   206      6.1   858.6    0.00       0    42.8
  64   19:20   39.7    52    3.3   222      4.0   858.5    0.00       0    42.5
  64   19:30   38.9    56    4.0   206      5.1   858.5    0.00       0    42.4
  64   19:40   37.6    61    4.7   187      5.5   858.5    0.00       0    42.2
  64   19:50   37.4    61    4.0   194      4.7   858.6    0.00       0    41.9
  64   20:00   36.7    63    3.5   183      4.9   858.6    0.00       0    41.8
  64   20:10   36.4    61    4.3   155      5.2   858.7    0.00       0    41.5
  64   20:20   35.3    66    4.6   142      6.9   858.5    0.00       0    41.3
  64   20:30   35.5    64    2.7   154      4.7   858.4    0.00       0    41.1
  64   20:40   35.5    63    1.7   165      3.4   858.5    0.00       0    40.9
  64   20:50   35.4    62    2.7   153      5.2   858.5    0.00       0    40.8
  64   21:00   35.1    64    1.4   130      3.6   858.5    0.00       0    40.6
  64   21:10   35.2    62    2.1   132      3.6   858.7    0.00       0    40.4
  64   21:20   34.9    64    0.9   137      1.8   858.7    0.00       0    40.2
  64   21:30   33.6    68    0.3   137      1.2   858.6    0.00       0    40.0
  64   21:40   31.6    74    0.4   129      1.8   858.6    0.00       0    39.7
  64   21:50   31.1    78    0.8   121      2.0   858.5    0.00       0    39.5
  64   22:00   31.0    77    0.4   123      1.4   858.5    0.00       0    39.4
  64   22:10   30.9    77    1.6   125      4.0   858.5    0.00       0    39.2
  64   22:20   31.5    74    2.8   180      4.4   858.3    0.00       0    39.0
  64   22:30   31.9    71    3.4   170      5.3   858.4    0.00       0    38.8
  64   22:40   32.2    69    1.3   172      2.9   858.4    0.00       0    38.7
  64   22:50   32.1    70    0.4   180      1.2   858.5    0.00       0    38.6
  64   23:00   29.9    78    0.8   187      1.4   858.5    0.00       0    38.4
  64   23:10   29.6    81    0.1   187      1.2   858.5    0.00       0    38.2
  64   23:20   29.9    78    0.5   178      2.1   858.4    0.00       0    38.1
  64   23:30   29.3    79    0.6   171      1.4   858.3    0.00       0    37.9
  64   23:40   28.4    82    1.5    37      2.6   858.2    0.00       0    37.7
  64   23:50   28.6    82    0.6    32      1.9   858.0    0.00       0    37.5
  65    0:00   29.4    77    2.2   254      3.8   858.1    0.00       0    37.4
  65    0:10   30.6    69    2.4   243      3.1   858.3    0.00       0    37.3
  65    0:20   31.3    66    2.1   259      3.4   858.3    0.00       0    37.3
  65    0:30   30.4    68    2.4   282      3.5   858.4    0.00       0    37.3
  65    0:40   29.8    68    0.9   282      1.5   858.4    0.00       0    37.1
  65    0:50   29.2    70    0.1   282      1.0   858.4    0.00       0    36.9
  65    1:00   28.9    70    0.1   281      1.0   858.3    0.00       0    36.8
  65    1:10   28.1    78    2.0   159      3.9   858.3    0.00       0    36.6
  65    1:20   28.7    76    1.7   158      4.2   858.3    0.00       0    36.5
  65    1:30   27.2    83    2.7   164      3.8   858.3    0.00       0    36.3
  65    1:40   26.8    84    2.8   157      4.6   858.2    0.00       0    36.2
  65    1:50   26.9    82    2.9   149      4.3   858.0    0.00       0    36.1
  65    2:00   26.5    82    1.9    82      4.9   858.0    0.00       0    35.9
  65    2:10   26.5    80    3.9    41      4.9   858.0    0.00       0    35.7
  65    2:20   25.8    81    4.1    41      4.8   857.6    0.00       0    35.5
  65    2:30   25.3    83    2.3    44      3.5   857.4    0.00       0    35.4
  65    2:40   26.2    82    2.2    40      3.1   857.4    0.00       0    35.3
  65    2:50   25.8    83    0.1    38      0.9   857.2    0.00       0    35.2
  65    3:00   25.5    84    1.1    49      3.1   857.1    0.00       0    35.2
  65    3:10   25.2    83    1.7    49      3.2   857.1    0.00       0    35.1
  65    3:20   24.8    85    0.3    49      1.3   857.0    0.00       0    35.0
  65    3:30   24.6    86    1.1    49      2.1   857.0    0.00       0    34.9
  65    3:40   24.7    86    0.1    47      0.7   857.0    0.00       0    34.8

Return to St. George, Utah graphs page.


Western Regional Climate Center,wrcc@dri.edu